Time;durP1;ratioP1;P1;durP2;ratioP2;P2;SDS_P1;SDS_P2;PMS_P1;PMS_P2;Temp;Humidity;BMP_temperature;BMP_pressure;BME280_temperature;BME280_humidity;BME280_pressure;Samples;Min_cycle;Max_cycle;Signal;HPM_P1;HPM_P2
2021/12/02 00:01:02;;;;;;;4.32;0.75;;;3.70;99.90;;;;;;5155412;27;20370;-75
2021/12/02 00:03:28;;;;;;;3.72;0.93;;;3.70;99.90;;;;;;5154908;27;20368;-75
2021/12/02 00:05:54;;;;;;;2.55;0.80;;;3.70;99.90;;;;;;5155333;27;20079;-75
2021/12/02 00:08:20;;;;;;;5.97;1.20;;;3.70;99.90;;;;;;5155599;27;20043;-75
2021/12/02 00:10:46;;;;;;;5.95;1.23;;;3.70;99.90;;;;;;5155166;27;20046;-75
2021/12/02 00:13:12;;;;;;;5.13;0.90;;;3.70;99.90;;;;;;5154878;27;20102;-75
2021/12/02 00:15:56;;;;;;;7.20;1.38;;;3.60;99.90;;;;;;5155205;27;20043;-75
2021/12/02 00:21:06;;;;;;;3.88;1.15;;;3.60;99.90;;;;;;5136422;27;20054;-75
2021/12/02 00:23:49;;;;;;;7.85;1.20;;;3.60;99.90;;;;;;5155151;27;20035;-75
2021/12/02 00:26:17;;;;;;;5.45;0.80;;;3.60;99.90;;;;;;5155196;27;20043;-75
2021/12/02 00:28:44;;;;;;;9.77;0.98;;;3.60;99.90;;;;;;5154904;27;20042;-72
2021/12/02 00:31:16;;;;;;;4.32;1.00;;;3.60;99.90;;;;;;5155140;27;20050;-76
2021/12/02 00:33:50;;;;;;;7.05;1.10;;;3.60;99.90;;;;;;5154877;27;20050;-76
2021/12/02 00:36:18;;;;;;;7.72;1.10;;;3.70;99.90;;;;;;5154907;27;20513;-75
2021/12/02 00:38:46;;;;;;;5.68;1.10;;;3.70;99.90;;;;;;5154716;27;20041;-75
2021/12/02 00:41:17;;;;;;;5.50;1.10;;;3.70;99.90;;;;;;5155230;27;20047;-75
2021/12/02 00:43:45;;;;;;;8.73;1.30;;;3.70;99.90;;;;;;5154879;27;20035;-75
2021/12/02 00:46:13;;;;;;;9.85;1.25;;;3.80;99.90;;;;;;5154240;27;20113;-75
2021/12/02 00:48:40;;;;;;;4.32;0.90;;;3.80;99.90;;;;;;5154812;27;20042;-76
2021/12/02 00:51:06;;;;;;;6.20;1.20;;;3.80;99.90;;;;;;5154222;27;20043;-75
2021/12/02 00:53:34;;;;;;;7.90;1.00;;;3.90;99.90;;;;;;5154662;27;20403;-76
2021/12/02 00:56:05;;;;;;;5.35;1.00;;;3.90;99.90;;;;;;5154034;27;20045;-75
2021/12/02 00:58:32;;;;;;;7.45;1.20;;;3.90;99.90;;;;;;5136075;27;20387;-75
2021/12/02 01:00:59;;;;;;;8.30;1.35;;;3.90;99.90;;;;;;5154061;27;20041;-76
2021/12/02 01:03:31;;;;;;;4.15;0.80;;;3.90;99.90;;;;;;5154503;27;20042;-75
2021/12/02 01:05:57;;;;;;;7.55;1.05;;;3.90;99.90;;;;;;5153924;27;20483;-75
2021/12/02 01:08:25;;;;;;;5.10;0.95;;;3.80;99.90;;;;;;5154376;27;20558;-75
2021/12/02 01:10:51;;;;;;;6.35;1.20;;;3.80;99.90;;;;;;5154045;27;20479;-75
2021/12/02 01:13:17;;;;;;;5.75;1.00;;;3.70;99.90;;;;;;5154243;27;20051;-75
2021/12/02 01:15:43;;;;;;;6.65;1.20;;;3.70;99.90;;;;;;5154361;27;20101;-75
2021/12/02 01:18:09;;;;;;;2.90;0.98;;;3.70;99.90;;;;;;5153136;27;20041;-75
2021/12/02 01:20:35;;;;;;;5.55;0.70;;;3.60;99.90;;;;;;5154529;27;20043;-75
2021/12/02 01:23:02;;;;;;;5.35;0.80;;;3.60;99.90;;;;;;5153187;27;20491;-75
2021/12/02 01:25:32;;;;;;;2.10;0.77;;;3.60;99.90;;;;;;5154190;27;20421;-75
2021/12/02 01:27:59;;;;;;;4.82;1.00;;;3.60;99.90;;;;;;5152033;27;20078;-75
2021/12/02 01:30:30;;;;;;;4.90;1.30;;;3.60;99.90;;;;;;5135547;27;20042;-75
2021/12/02 01:33:03;;;;;;;2.58;0.70;;;3.50;99.90;;;;;;5153394;27;20443;-75
2021/12/02 01:35:31;;;;;;;4.40;0.90;;;3.50;99.90;;;;;;5153563;27;20050;-75
2021/12/02 01:37:57;;;;;;;3.35;0.73;;;3.50;99.90;;;;;;5152720;27;20047;-75
2021/12/02 01:40:23;;;;;;;7.88;1.05;;;3.50;99.90;;;;;;5154399;27;20122;-76
2021/12/02 01:42:55;;;;;;;6.38;1.20;;;3.50;99.90;;;;;;5153973;27;20047;-75
2021/12/02 01:45:24;;;;;;;1.83;0.70;;;3.50;99.90;;;;;;5154139;27;20045;-75
2021/12/02 01:47:52;;;;;;;5.78;1.00;;;3.40;99.90;;;;;;5153359;27;20564;-75
2021/12/02 01:50:22;;;;;;;4.18;0.70;;;3.40;99.90;;;;;;5153365;27;20079;-75
2021/12/02 01:52:55;;;;;;;4.85;0.88;;;3.40;99.90;;;;;;5154164;27;20091;-75
2021/12/02 01:55:21;;;;;;;4.25;0.60;;;3.30;99.90;;;;;;5153821;27;20050;-75
2021/12/02 01:57:58;;;;;;;4.38;0.80;;;3.30;99.90;;;;;;5135244;27;20050;-75
2021/12/02 02:00:27;;;;;;;4.93;0.70;;;3.30;99.90;;;;;;5153188;27;20043;-75
2021/12/02 02:02:54;;;;;;;3.70;0.60;;;3.20;99.90;;;;;;5134691;27;20114;-75
2021/12/02 02:05:20;;;;;;;3.28;1.00;;;3.20;99.90;;;;;;5154032;27;20043;-75
2021/12/02 02:08:15;;;;;;;4.82;0.90;;;3.20;99.90;;;;;;5153691;27;20070;-75
2021/12/02 02:10:41;;;;;;;3.80;1.25;;;3.20;99.90;;;;;;5153738;27;20394;-75
2021/12/02 02:13:10;;;;;;;5.40;1.02;;;3.20;99.90;;;;;;5152606;27;20049;-75
2021/12/02 02:15:38;;;;;;;4.22;1.13;;;3.20;99.90;;;;;;5153616;27;20049;-75
2021/12/02 02:18:24;;;;;;;3.85;0.77;;;3.20;99.90;;;;;;5153300;27;20035;-75
2021/12/02 02:21:02;;;;;;;3.38;0.98;;;3.30;99.90;;;;;;5153084;27;20432;-75
2021/12/02 02:23:30;;;;;;;5.53;0.98;;;3.30;99.90;;;;;;5153658;27;20085;-75
2021/12/02 02:25:57;;;;;;;6.43;1.25;;;3.40;99.90;;;;;;5153944;27;20047;-73
2021/12/02 02:28:23;;;;;;;4.72;1.30;;;3.40;99.90;;;;;;5153301;27;20050;-75
2021/12/02 02:30:50;;;;;;;4.60;0.95;;;3.40;99.90;;;;;;5153348;27;20054;-74
2021/12/02 02:33:19;;;;;;;5.13;0.90;;;3.50;99.90;;;;;;5152453;27;20135;-75
2021/12/02 02:35:46;;;;;;;5.45;0.98;;;3.50;99.90;;;;;;5153745;27;20058;-75
2021/12/02 02:38:14;;;;;;;4.57;0.80;;;3.50;99.90;;;;;;5153287;27;20054;-74
2021/12/02 02:40:43;;;;;;;7.72;1.00;;;3.60;99.90;;;;;;5157009;27;20137;-73
2021/12/02 02:43:11;;;;;;;4.40;0.80;;;3.50;99.90;;;;;;5156005;27;20047;-74
2021/12/02 02:45:38;;;;;;;4.18;0.95;;;3.50;99.90;;;;;;5157630;27;20050;-74
2021/12/02 02:48:05;;;;;;;4.97;0.70;;;3.40;99.90;;;;;;5156328;27;20474;-73
2021/12/02 02:50:33;;;;;;;3.65;1.23;;;3.40;99.90;;;;;;5138803;27;20053;-73
2021/12/02 02:53:13;;;;;;;4.30;0.55;;;3.40;99.90;;;;;;5156575;27;20043;-74
2021/12/02 02:55:40;;;;;;;3.90;0.60;;;3.30;99.90;;;;;;5157436;27;20055;-74
2021/12/02 02:58:16;;;;;;;3.47;0.60;;;3.20;99.90;;;;;;5156367;27;20071;-74
2021/12/02 03:00:58;;;;;;;4.18;0.82;;;3.20;99.90;;;;;;5157359;27;20055;-75
2021/12/02 03:03:35;;;;;;;4.90;0.63;;;3.10;99.90;;;;;;5156027;27;20055;-75
2021/12/02 03:08:37;;;;;;;2.50;0.50;;;3.00;99.90;;;;;;5156354;27;20097;-75
2021/12/02 03:11:04;;;;;;;4.68;0.88;;;3.00;99.90;;;;;;5156249;27;20042;-73
2021/12/02 03:13:47;;;;;;;3.03;0.50;;;2.90;99.90;;;;;;5156246;27;20066;-75
2021/12/02 03:19:08;;;;;;;2.47;0.60;;;2.90;99.90;;;;;;5129152;27;20099;-75
2021/12/02 03:21:34;;;;;;;3.53;0.47;;;2.80;99.90;;;;;;5156135;27;20039;-75
2021/12/02 03:24:01;;;;;;;1.85;0.45;;;2.80;99.90;;;;;;5156788;27;20074;-75
2021/12/02 03:26:29;;;;;;;1.90;0.50;;;2.70;99.90;;;;;;5155729;27;20045;-75
2021/12/02 03:28:55;;;;;;;2.85;0.60;;;2.70;99.90;;;;;;5156304;27;20101;-74
2021/12/02 03:31:21;;;;;;;2.25;0.60;;;2.60;99.90;;;;;;5136835;27;20468;-74
2021/12/02 03:33:48;;;;;;;2.13;0.40;;;2.60;99.90;;;;;;5156675;27;20129;-75
2021/12/02 03:36:15;;;;;;;0.93;0.50;;;2.60;99.90;;;;;;5155370;27;20095;-74
2021/12/02 03:38:41;;;;;;;3.38;0.40;;;2.60;99.90;;;;;;5156346;27;20050;-74
2021/12/02 03:41:07;;;;;;;1.40;0.70;;;2.60;99.90;;;;;;5156150;27;20109;-73
2021/12/02 03:43:44;;;;;;;1.67;0.40;;;2.60;99.90;;;;;;5156108;27;20053;-75
2021/12/02 03:46:12;;;;;;;1.95;0.40;;;2.60;99.90;;;;;;5155202;27;20121;-74
2021/12/02 03:48:38;;;;;;;1.65;0.40;;;2.50;99.90;;;;;;5155982;27;20121;-75
2021/12/02 03:51:06;;;;;;;2.22;0.40;;;2.50;99.90;;;;;;5137024;27;20167;-75
2021/12/02 03:53:32;;;;;;;1.25;0.50;;;2.50;99.90;;;;;;5155438;27;20046;-74
2021/12/02 03:55:58;;;;;;;2.30;0.60;;;2.50;99.90;;;;;;5156210;27;20066;-75
2021/12/02 03:58:24;;;;;;;1.17;0.30;;;2.40;99.90;;;;;;5154881;27;20046;-74
2021/12/02 04:00:50;;;;;;;2.05;0.43;;;2.30;99.90;;;;;;5156147;27;20046;-75
2021/12/02 04:03:16;;;;;;;2.05;0.47;;;2.30;99.90;;;;;;5136538;27;20049;-74
2021/12/02 04:05:41;;;;;;;1.73;0.40;;;2.30;99.90;;;;;;5156306;27;20046;-74
2021/12/02 04:08:11;;;;;;;1.23;0.40;;;2.20;99.90;;;;;;5155573;27;20389;-75
2021/12/02 04:10:37;;;;;;;1.05;0.30;;;2.20;99.90;;;;;;5155857;27;20050;-74
2021/12/02 04:15:34;;;;;;;1.33;0.40;;;2.20;99.90;;;;;;5155168;27;20960;-74
2021/12/02 04:18:00;;;;;;;2.65;0.43;;;2.10;99.90;;;;;;5155078;27;20043;-74
2021/12/02 04:20:27;;;;;;;1.90;0.50;;;2.10;99.90;;;;;;5154410;27;20053;-75
2021/12/02 04:22:54;;;;;;;3.03;0.50;;;2.00;99.90;;;;;;5155286;27;20066;-75
2021/12/02 04:25:20;;;;;;;1.95;0.68;;;2.00;99.90;;;;;;5136734;27;20053;-74
2021/12/02 04:27:48;;;;;;;4.13;0.63;;;2.00;99.90;;;;;;5155247;27;20081;-75
2021/12/02 04:30:15;;;;;;;2.78;0.63;;;2.00;99.90;;;;;;5154143;27;20039;-73
2021/12/02 04:32:41;;;;;;;2.10;0.63;;;2.00;99.90;;;;;;5136968;27;20045;-75
2021/12/02 04:35:08;;;;;;;1.08;0.60;;;2.10;99.90;;;;;;5136530;27;20046;-75
2021/12/02 04:37:35;;;;;;;1.98;0.90;;;2.10;99.90;;;;;;5154037;27;20494;-74
2021/12/02 04:40:01;;;;;;;1.20;0.47;;;2.10;99.90;;;;;;5154670;27;20055;-74
2021/12/02 04:42:27;;;;;;;2.42;0.50;;;2.10;99.90;;;;;;5154019;27;20054;-74
2021/12/02 04:44:52;;;;;;;2.55;0.55;;;2.10;99.90;;;;;;5155189;27;20070;-74
2021/12/02 04:47:18;;;;;;;0.98;0.45;;;2.20;99.90;;;;;;5154310;27;20475;-74
2021/12/02 04:49:44;;;;;;;2.10;0.50;;;2.10;99.90;;;;;;5154451;27;20479;-74
2021/12/02 04:52:10;;;;;;;1.90;0.40;;;2.20;99.90;;;;;;5154607;27;20039;-74
2021/12/02 04:54:36;;;;;;;2.28;0.90;;;2.20;99.90;;;;;;5154253;27;20376;-74
2021/12/02 04:57:02;;;;;;;1.85;0.75;;;2.20;99.90;;;;;;5154373;27;20043;-74
2021/12/02 04:59:28;;;;;;;2.20;0.73;;;2.20;99.90;;;;;;5154020;27;20040;-74
2021/12/02 05:01:54;;;;;;;1.98;0.70;;;2.20;99.90;;;;;;5154182;27;20046;-74
2021/12/02 05:04:20;;;;;;;2.55;0.65;;;2.20;99.90;;;;;;5153987;27;20421;-74
2021/12/02 05:06:46;;;;;;;1.02;0.65;;;2.20;99.90;;;;;;5136146;27;20050;-75
2021/12/02 05:09:11;;;;;;;2.28;0.70;;;2.20;99.90;;;;;;5154761;27;20042;-75
2021/12/02 05:11:38;;;;;;;1.25;0.77;;;2.20;99.90;;;;;;5153161;27;20031;-75
2021/12/02 05:14:05;;;;;;;2.63;0.70;;;2.20;99.90;;;;;;5154651;27;20053;-75
2021/12/02 05:16:30;;;;;;;1.80;0.57;;;2.20;99.90;;;;;;5135555;27;20039;-75
2021/12/02 05:18:56;;;;;;;2.80;0.70;;;2.10;99.90;;;;;;5154303;27;20046;-75
2021/12/02 05:21:22;;;;;;;4.43;0.70;;;2.10;99.90;;;;;;5153460;27;20118;-74
2021/12/02 05:23:53;;;;;;;2.15;0.63;;;2.00;99.90;;;;;;5153372;27;20039;-74
2021/12/02 05:26:21;;;;;;;1.60;0.70;;;2.00;99.90;;;;;;5152896;27;20050;-74
2021/12/02 05:28:47;;;;;;;1.33;0.50;;;2.00;99.90;;;;;;5154135;27;20090;-75
2021/12/02 05:31:13;;;;;;;2.38;0.73;;;2.00;99.90;;;;;;5154480;27;20077;-75
2021/12/02 05:33:38;;;;;;;2.33;0.63;;;2.00;99.90;;;;;;5153458;27;20098;-75
2021/12/02 05:36:04;;;;;;;2.90;0.82;;;2.00;99.90;;;;;;5154122;27;20122;-75
2021/12/02 05:38:30;;;;;;;3.60;0.60;;;2.00;99.90;;;;;;5153686;27;20038;-75
2021/12/02 05:40:56;;;;;;;1.67;0.80;;;2.00;99.90;;;;;;5154778;27;20545;-75
2021/12/02 05:43:22;;;;;;;3.22;0.98;;;2.00;99.90;;;;;;5135090;27;20046;-74
2021/12/02 05:45:47;;;;;;;1.48;0.40;;;2.00;99.90;;;;;;5154437;27;20038;-75
2021/12/02 05:48:13;;;;;;;2.05;0.70;;;2.00;99.90;;;;;;5154140;27;20046;-75
2021/12/02 05:50:39;;;;;;;1.70;0.70;;;1.90;99.90;;;;;;5153420;27;20046;-75
2021/12/02 05:53:05;;;;;;;1.10;0.70;;;1.90;99.90;;;;;;5135727;27;20467;-75
2021/12/02 05:55:30;;;;;;;2.65;0.70;;;1.90;99.90;;;;;;5153156;27;20047;-75
2021/12/02 05:57:56;;;;;;;1.77;0.77;;;1.90;99.90;;;;;;5153877;27;20208;-75
2021/12/02 06:00:22;;;;;;;2.72;0.63;;;2.00;99.90;;;;;;5153864;27;20039;-73
2021/12/02 06:02:48;;;;;;;0.95;0.40;;;2.00;99.90;;;;;;5153597;27;20042;-75
2021/12/02 06:05:18;;;;;;;2.20;0.70;;;1.90;99.90;;;;;;5153709;27;20042;-75
2021/12/02 06:07:44;;;;;;;3.42;0.63;;;1.90;99.90;;;;;;5135421;27;20054;-75
2021/12/02 06:10:11;;;;;;;3.22;0.65;;;1.90;99.90;;;;;;5153519;27;20039;-75
2021/12/02 06:12:36;;;;;;;1.67;0.60;;;1.90;99.90;;;;;;5153640;27;20080;-75
2021/12/02 06:15:02;;;;;;;2.75;0.60;;;1.80;99.90;;;;;;5157195;27;20368;-75
2021/12/02 06:17:28;;;;;;;3.05;0.77;;;1.80;99.90;;;;;;5157493;27;20090;-74
2021/12/02 06:19:54;;;;;;;2.30;0.70;;;1.90;99.90;;;;;;5158087;27;20129;-76
2021/12/02 06:22:19;;;;;;;2.83;0.80;;;1.80;99.90;;;;;;5157698;27;20034;-76
2021/12/02 06:25:04;;;;;;;2.53;0.70;;;1.80;99.90;;;;;;5157642;27;20418;-75
2021/12/02 06:27:30;;;;;;;2.00;0.60;;;1.80;99.90;;;;;;5157276;27;20075;-75
2021/12/02 06:29:56;;;;;;;4.75;0.80;;;1.80;99.90;;;;;;5157564;27;20078;-75
2021/12/02 06:32:22;;;;;;;1.50;0.80;;;1.80;99.90;;;;;;5157740;27;20047;-76
2021/12/02 06:34:47;;;;;;;2.08;0.80;;;1.80;99.90;;;;;;5156800;27;20088;-75
2021/12/02 06:37:13;;;;;;;1.73;0.70;;;1.80;99.90;;;;;;5157819;27;20049;-76
2021/12/02 06:39:39;;;;;;;6.10;0.90;;;1.80;99.90;;;;;;5156949;27;20100;-75
2021/12/02 06:42:04;;;;;;;2.35;0.90;;;1.80;99.90;;;;;;5122156;27;20599;-75
2021/12/02 06:44:32;;;;;;;2.65;0.90;;;1.80;99.90;;;;;;5156981;27;20055;-75
2021/12/02 06:46:57;;;;;;;2.15;0.73;;;1.80;99.90;;;;;;5157697;27;20054;-75
2021/12/02 06:49:23;;;;;;;3.50;0.68;;;1.80;99.90;;;;;;5157179;27;20046;-75
2021/12/02 06:51:49;;;;;;;3.90;0.90;;;1.90;99.90;;;;;;5156042;27;20046;-75
2021/12/02 06:54:14;;;;;;;1.63;0.80;;;1.80;99.90;;;;;;5122031;27;20042;-75
2021/12/02 06:56:40;;;;;;;3.17;1.00;;;1.90;99.90;;;;;;5156705;27;20078;-75
2021/12/02 06:59:06;;;;;;;2.50;0.77;;;1.90;99.90;;;;;;5138558;27;20125;-75
2021/12/02 07:01:34;;;;;;;2.72;0.70;;;1.90;99.90;;;;;;5156553;27;20034;-74
2021/12/02 07:04:00;;;;;;;3.53;0.82;;;1.90;99.90;;;;;;5155637;27;20501;-76
2021/12/02 07:06:26;;;;;;;1.63;0.70;;;1.90;99.90;;;;;;5157086;27;20046;-76
2021/12/02 07:08:51;;;;;;;2.45;1.10;;;2.00;99.90;;;;;;5138246;27;20129;-76
2021/12/02 07:11:17;;;;;;;1.80;0.90;;;2.00;99.90;;;;;;5157018;27;20038;-76
2021/12/02 07:13:43;;;;;;;2.20;0.88;;;2.10;99.90;;;;;;5155614;27;20074;-76
2021/12/02 07:16:09;;;;;;;2.70;1.00;;;2.10;99.90;;;;;;5138397;27;20046;-76
2021/12/02 07:18:38;;;;;;;2.38;1.02;;;2.10;99.90;;;;;;5137919;27;20054;-76
2021/12/02 07:21:04;;;;;;;3.10;1.35;;;2.10;99.90;;;;;;5156811;27;20049;-76
2021/12/02 07:23:30;;;;;;;2.45;0.77;;;2.10;99.90;;;;;;5156497;27;20046;-73
2021/12/02 07:25:57;;;;;;;3.35;0.98;;;2.10;99.90;;;;;;5154840;27;20206;-75
2021/12/02 07:28:23;;;;;;;2.92;0.90;;;2.10;99.90;;;;;;5138528;27;20494;-76
2021/12/02 07:30:54;;;;;;;2.25;0.77;;;2.10;99.90;;;;;;5155768;27;20034;-76
2021/12/02 07:33:21;;;;;;;2.97;0.70;;;2.10;99.90;;;;;;5156785;27;20042;-75
2021/12/02 07:35:47;;;;;;;3.58;0.85;;;2.10;99.90;;;;;;5137792;27;20042;-75
2021/12/02 07:38:13;;;;;;;2.10;1.05;;;2.30;99.90;;;;;;5156535;27;20053;-76
2021/12/02 07:40:41;;;;;;;3.33;0.80;;;2.20;99.90;;;;;;5154154;27;20046;-76
2021/12/02 07:43:07;;;;;;;1.83;0.90;;;2.40;99.90;;;;;;5156041;27;20078;-75
2021/12/02 07:45:36;;;;;;;1.83;0.80;;;2.30;99.90;;;;;;5155864;27;20042;-74
2021/12/02 07:48:06;;;;;;;2.90;0.90;;;2.30;99.90;;;;;;5156349;27;20518;-76
2021/12/02 07:50:34;;;;;;;1.90;1.40;;;2.30;99.90;;;;;;5155752;27;20114;-75
2021/12/02 07:53:06;;;;;;;2.92;1.30;;;2.30;99.90;;;;;;5155811;27;20039;-76
2021/12/02 07:55:35;;;;;;;2.53;1.25;;;2.30;99.90;;;;;;5156355;27;20046;-76
2021/12/02 07:58:04;;;;;;;2.25;1.10;;;2.30;99.90;;;;;;5155987;27;20043;-75
2021/12/02 08:00:30;;;;;;;2.55;1.48;;;2.40;99.90;;;;;;5155977;27;20085;-75
2021/12/02 08:02:56;;;;;;;2.97;1.42;;;2.30;99.90;;;;;;5155502;27;20226;-76
2021/12/02 08:05:24;;;;;;;2.28;1.33;;;2.30;99.90;;;;;;5155720;27;20099;-76
2021/12/02 08:07:52;;;;;;;3.33;1.73;;;2.30;99.90;;;;;;5155127;27;20057;-75
2021/12/02 08:10:18;;;;;;;2.63;1.95;;;2.30;99.90;;;;;;5137456;27;20093;-75
2021/12/02 08:12:50;;;;;;;3.65;1.77;;;2.30;99.90;;;;;;5155116;27;20054;-75
2021/12/02 08:15:21;;;;;;;3.85;2.28;;;2.30;99.90;;;;;;5155856;27;20051;-76
2021/12/02 08:17:47;;;;;;;2.47;1.77;;;2.30;99.90;;;;;;5155305;27;20046;-75
2021/12/02 08:20:14;;;;;;;2.92;2.00;;;2.40;99.90;;;;;;5155746;27;20046;-76
2021/12/02 08:22:40;;;;;;;3.88;2.08;;;2.30;99.90;;;;;;5154202;27;20210;-75
2021/12/02 08:25:06;;;;;;;3.20;1.85;;;2.30;99.90;;;;;;5155622;27;20479;-76
2021/12/02 08:27:32;;;;;;;4.35;2.20;;;2.30;99.90;;;;;;5155605;27;20052;-78
2021/12/02 08:29:58;;;;;;;3.92;2.40;;;2.30;99.90;;;;;;5154883;27;20588;-78
2021/12/02 08:32:24;;;;;;;3.30;2.22;;;2.40;99.90;;;;;;5151394;27;20488;-75
2021/12/02 08:34:52;;;;;;;3.88;2.53;;;2.50;99.90;;;;;;5147405;27;20487;-77
2021/12/02 08:37:18;;;;;;;3.78;2.28;;;2.50;99.90;;;;;;5149865;27;20407;-78
2021/12/02 08:39:45;;;;;;;3.45;2.50;;;2.60;99.90;;;;;;5151443;27;20059;-77
2021/12/02 08:42:11;;;;;;;2.72;2.00;;;2.70;99.90;;;;;;5151785;27;20070;-77
2021/12/02 08:44:40;;;;;;;2.78;2.47;;;2.80;99.90;;;;;;5151262;27;20041;-78
2021/12/02 08:47:08;;;;;;;4.03;2.35;;;2.80;99.90;;;;;;5133642;27;20038;-78
2021/12/02 08:49:34;;;;;;;2.53;2.10;;;2.80;99.90;;;;;;5151281;27;20046;-76
2021/12/02 08:51:59;;;;;;;3.08;2.15;;;2.90;99.90;;;;;;5132719;27;20034;-78
2021/12/02 08:54:25;;;;;;;3.55;2.20;;;2.90;99.90;;;;;;5152073;27;20418;-78
2021/12/02 08:56:51;;;;;;;3.50;2.58;;;2.90;99.90;;;;;;5132811;27;20130;-78
2021/12/02 08:59:17;;;;;;;3.72;2.50;;;2.90;99.90;;;;;;5151153;27;20090;-78
2021/12/02 09:01:43;;;;;;;2.75;2.15;;;2.90;99.90;;;;;;5141332;27;20038;-77
2021/12/02 09:04:09;;;;;;;3.00;2.40;;;3.00;99.90;;;;;;5133360;27;20043;-78
2021/12/02 09:06:35;;;;;;;4.93;2.63;;;3.10;99.90;;;;;;5133164;27;20042;-77
2021/12/02 09:09:01;;;;;;;3.70;2.47;;;3.10;99.90;;;;;;5151176;27;20758;-78
2021/12/02 09:11:28;;;;;;;4.60;2.55;;;3.20;99.90;;;;;;5132914;27;20035;-78
2021/12/02 09:13:57;;;;;;;2.83;2.53;;;3.30;99.90;;;;;;5132330;27;20054;-76
2021/12/02 09:16:25;;;;;;;4.10;2.40;;;3.30;99.90;;;;;;5151777;27;20043;-78
2021/12/02 09:18:51;;;;;;;3.08;2.33;;;3.40;99.90;;;;;;5150711;27;20690;-78
2021/12/02 09:21:17;;;;;;;3.83;2.05;;;3.40;99.90;;;;;;5151122;27;20491;-76
2021/12/02 09:23:43;;;;;;;3.15;2.20;;;3.50;99.90;;;;;;5151316;27;20047;-76
2021/12/02 09:26:09;;;;;;;2.72;2.10;;;3.50;99.90;;;;;;5132762;27;20687;-78
2021/12/02 09:28:34;;;;;;;2.92;2.25;;;3.50;99.90;;;;;;5150919;27;20546;-78
2021/12/02 09:31:00;;;;;;;4.32;2.38;;;3.50;99.90;;;;;;5150409;27;20070;-78
2021/12/02 09:33:26;;;;;;;4.68;2.85;;;3.50;99.90;;;;;;5151580;27;20043;-78
2021/12/02 09:35:52;;;;;;;5.80;3.13;;;3.50;99.90;;;;;;5131859;27;20042;-78
2021/12/02 09:38:18;;;;;;;4.93;2.70;;;3.40;99.90;;;;;;5150501;27;20035;-76
2021/12/02 09:40:44;;;;;;;5.57;3.00;;;3.30;99.90;;;;;;5150657;27;20126;-75
2021/12/02 09:43:12;;;;;;;3.95;2.63;;;3.30;99.90;;;;;;5150822;27;20074;-79
2021/12/02 09:45:39;;;;;;;4.07;2.80;;;3.20;99.90;;;;;;5150750;27;20046;-76
2021/12/02 09:48:05;;;;;;;6.13;2.72;;;3.20;99.90;;;;;;5150094;27;20207;-79
2021/12/02 09:50:34;;;;;;;4.47;2.33;;;3.20;99.90;;;;;;5150712;27;20035;-78
2021/12/02 09:53:14;;;;;;;3.20;2.30;;;3.20;99.90;;;;;;5150826;27;20042;-77
2021/12/02 09:56:07;;;;;;;4.05;2.00;;;3.20;99.90;;;;;;5151815;27;20046;-78
2021/12/02 09:58:32;;;;;;;2.58;1.60;;;3.30;99.90;;;;;;5151659;27;20047;-79
2021/12/02 10:01:16;;;;;;;4.70;2.03;;;3.30;99.90;;;;;;5150645;27;20039;-78
2021/12/02 10:03:46;;;;;;;3.28;1.65;;;3.30;99.90;;;;;;5150217;27;20042;-77
2021/12/02 10:06:17;;;;;;;2.95;1.50;;;3.40;99.90;;;;;;5150939;27;20155;-78
2021/12/02 10:11:32;;;;;;;2.28;1.60;;;3.50;99.90;;;;;;5150578;27;20183;-78
2021/12/02 10:14:22;;;;;;;1.90;1.70;;;3.60;99.90;;;;;;5149802;27;20077;-75
2021/12/02 10:16:50;;;;;;;3.00;1.77;;;3.60;99.90;;;;;;5150071;27;20043;-75
2021/12/02 10:19:28;;;;;;;3.28;2.97;;;3.70;99.90;;;;;;5132290;27;20043;-78
2021/12/02 10:21:57;;;;;;;3.85;1.73;;;3.80;99.90;;;;;;5149830;27;20484;-77
2021/12/02 10:24:28;;;;;;;3.28;1.80;;;3.90;99.90;;;;;;5150469;27;20172;-77
2021/12/02 10:27:00;;;;;;;2.75;1.77;;;4.00;99.90;;;;;;5149609;27;20054;-77
2021/12/02 10:29:32;;;;;;;3.55;1.45;;;4.00;99.90;;;;;;5132418;27;20049;-78
2021/12/02 10:32:10;;;;;;;3.85;3.55;;;4.00;99.90;;;;;;5149768;27;20047;-78
2021/12/02 10:34:55;;;;;;;3.20;2.03;;;4.10;99.90;;;;;;5150225;27;20035;-78
2021/12/02 10:37:24;;;;;;;2.35;1.52;;;4.10;99.90;;;;;;5150393;27;20045;-77
2021/12/02 10:40:20;;;;;;;2.45;1.52;;;4.10;99.90;;;;;;5131683;27;20088;-75
2021/12/02 10:42:47;;;;;;;2.28;1.95;;;4.10;99.90;;;;;;5150826;27;20050;-77
2021/12/02 10:45:24;;;;;;;2.72;1.45;;;4.20;99.90;;;;;;5131512;27;20488;-78
2021/12/02 10:47:53;;;;;;;3.97;1.83;;;4.20;99.90;;;;;;5131641;27;20105;-76
2021/12/02 10:50:20;;;;;;;1.90;1.70;;;4.20;99.90;;;;;;5132566;27;20042;-78
2021/12/02 10:52:46;;;;;;;3.17;2.10;;;4.20;99.90;;;;;;5150895;27;20372;-78
2021/12/02 10:55:19;;;;;;;1.90;1.63;;;4.20;99.90;;;;;;5131974;27;20082;-78
2021/12/02 10:57:52;;;;;;;2.13;1.92;;;4.20;99.90;;;;;;5153250;27;20095;-79
2021/12/02 11:00:21;;;;;;;2.00;1.70;;;4.20;99.90;;;;;;5138747;27;20090;-77
2021/12/02 11:02:53;;;;;;;2.25;1.55;;;4.30;99.90;;;;;;5157446;27;20042;-78
2021/12/02 11:05:40;;;;;;;2.00;1.60;;;4.30;99.90;;;;;;5157812;27;20042;-78
2021/12/02 11:08:08;;;;;;;3.72;2.00;;;4.30;99.90;;;;;;5157142;27;20058;-78
2021/12/02 11:10:36;;;;;;;3.35;1.80;;;4.40;99.90;;;;;;5156176;27;20418;-78
2021/12/02 11:13:03;;;;;;;2.50;1.60;;;4.40;99.90;;;;;;5151297;27;20047;-78
2021/12/02 11:15:30;;;;;;;3.63;2.70;;;4.40;99.90;;;;;;5144150;27;20380;-78
2021/12/02 11:18:02;;;;;;;2.28;1.90;;;4.50;99.90;;;;;;5144640;27;20042;-78
2021/12/02 11:20:39;;;;;;;2.58;1.48;;;4.50;99.90;;;;;;5148795;27;20042;-78
2021/12/02 11:23:30;;;;;;;4.15;1.58;;;4.50;99.90;;;;;;5146326;27;20118;-78
2021/12/02 11:25:57;;;;;;;1.70;1.40;;;4.50;99.90;;;;;;5140655;27;20121;-78
2021/12/02 11:28:35;;;;;;;3.97;1.60;;;4.50;99.90;;;;;;5148710;27;20050;-78
2021/12/02 11:31:27;;;;;;;3.67;1.27;;;4.50;99.90;;;;;;5144603;27;20047;-78
2021/12/02 11:33:53;;;;;;;2.13;1.05;;;4.60;99.90;;;;;;5116512;27;20399;-78
2021/12/02 11:36:24;;;;;;;2.63;1.05;;;4.70;99.90;;;;;;5137862;27;20047;-78
2021/12/02 11:38:57;;;;;;;1.75;1.35;;;4.70;99.90;;;;;;5143387;27;20161;-78
2021/12/02 11:41:23;;;;;;;1.77;1.00;;;4.60;99.90;;;;;;5153619;27;20050;-78
2021/12/02 11:43:50;;;;;;;1.63;0.90;;;4.70;99.90;;;;;;5142941;27;20403;-76
2021/12/02 11:46:15;;;;;;;2.00;1.10;;;4.70;99.90;;;;;;5144798;27;20039;-78
2021/12/02 11:48:43;;;;;;;1.95;1.00;;;4.70;99.90;;;;;;5135987;27;20042;-78
2021/12/02 11:51:14;;;;;;;1.52;1.00;;;4.70;99.90;;;;;;5135373;27;20035;-78
2021/12/02 11:53:41;;;;;;;1.33;0.80;;;4.70;99.90;;;;;;5151521;27;20432;-78
2021/12/02 11:56:15;;;;;;;0.85;0.60;;;4.50;99.90;;;;;;5155056;27;20054;-78
2021/12/02 11:58:42;;;;;;;2.42;0.70;;;4.40;99.90;;;;;;5148986;27;20042;-79
2021/12/02 12:01:14;;;;;;;2.00;0.70;;;4.20;99.90;;;;;;5146919;27;20042;-79
2021/12/02 12:03:50;;;;;;;1.70;0.77;;;4.20;99.90;;;;;;5125697;27;20046;-79
2021/12/02 12:06:23;;;;;;;3.00;0.52;;;4.10;99.90;;;;;;5145251;27;20039;-78
2021/12/02 12:08:51;;;;;;;1.02;0.47;;;4.10;99.90;;;;;;5120590;27;20047;-72
2021/12/02 12:11:24;;;;;;;0.75;0.70;;;4.00;99.90;;;;;;5134050;27;20035;-79
2021/12/02 12:14:03;;;;;;;1.92;0.70;;;4.00;99.90;;;;;;5135611;27;20047;-78
2021/12/02 12:16:33;;;;;;;2.67;1.48;;;3.90;99.90;;;;;;5135294;27;20043;-77
2021/12/02 12:19:25;;;;;;;0.93;0.70;;;3.90;99.90;;;;;;5135473;27;20430;-76
2021/12/02 12:21:55;;;;;;;1.50;0.70;;;3.90;99.90;;;;;;5135381;27;20099;-76
2021/12/02 12:24:40;;;;;;;0.97;0.63;;;3.80;99.90;;;;;;5116815;27;20373;-76
2021/12/02 12:27:19;;;;;;;2.05;1.00;;;3.80;99.90;;;;;;5134807;27;20043;-75
2021/12/02 12:29:48;;;;;;;2.50;0.68;;;3.80;99.90;;;;;;5135023;27;20401;-76
2021/12/02 12:32:21;;;;;;;1.70;0.60;;;3.70;99.90;;;;;;5134580;27;20080;-76
2021/12/02 12:35:00;;;;;;;2.50;0.43;;;3.70;99.90;;;;;;5135000;27;20047;-76
2021/12/02 12:38:06;;;;;;;1.60;0.50;;;3.70;99.90;;;;;;5134299;27;20403;-76
2021/12/02 12:40:46;;;;;;;1.63;0.95;;;3.80;99.90;;;;;;5112615;27;20062;-76
2021/12/02 12:43:11;;;;;;;1.50;0.80;;;3.80;99.90;;;;;;5134437;27;20039;-76
2021/12/02 12:45:41;;;;;;;1.58;0.52;;;3.80;99.90;;;;;;5134759;27;20054;-76
2021/12/02 12:48:29;;;;;;;2.30;0.60;;;3.70;99.90;;;;;;5134511;27;20507;-76
2021/12/02 12:51:13;;;;;;;0.93;0.43;;;3.80;99.90;;;;;;5133671;27;20504;-76
2021/12/02 12:53:43;;;;;;;3.10;0.73;;;3.90;99.90;;;;;;5116730;27;20051;-76
2021/12/02 12:56:12;;;;;;;1.00;0.40;;;3.90;99.90;;;;;;5115880;27;20411;-75
2021/12/02 12:59:00;;;;;;;1.17;0.50;;;3.90;99.90;;;;;;5134515;27;20039;-76
2021/12/02 13:01:27;;;;;;;2.47;0.70;;;4.00;99.90;;;;;;5134095;27;20532;-76
2021/12/02 13:04:15;;;;;;;1.63;0.70;;;3.80;99.90;;;;;;5134690;27;20051;-76
2021/12/02 13:07:11;;;;;;;4.75;0.68;;;3.90;99.90;;;;;;5134657;27;20118;-76
2021/12/02 13:09:45;;;;;;;1.10;0.50;;;3.90;99.90;;;;;;5132447;27;20059;-75
2021/12/02 13:12:17;;;;;;;2.53;0.50;;;3.90;99.90;;;;;;5134055;27;20083;-75
2021/12/02 13:14:43;;;;;;;1.05;0.50;;;3.90;99.90;;;;;;5134574;27;20471;-76
2021/12/02 13:17:38;;;;;;;3.60;3.40;;;4.00;99.90;;;;;;5133776;27;20107;-75
2021/12/02 13:20:17;;;;;;;0.70;0.50;;;3.90;99.90;;;;;;5133904;27;20518;-76
2021/12/02 13:22:45;;;;;;;1.60;0.40;;;3.80;99.90;;;;;;5133239;27;20043;-76